Kiambere Airport


Codes: HKKB/
Name: Kiambere Airport
City: Kiambere
Country: Kenya
Elevation: 2450 ft.

Photos at Kiambere Airport


   Photos courtesy of SpottingLog. You can add your own sightings and photos by signing up for a free trial today.



No photos found.

Weather at Kiambere Airport


Time (UTC)DescriptionTempratureWindCloud coverageVisibilityPressureHumidity
23-May-2024 21:00Overcast Clouds22°C2 mph, SW98%10000m1016hPa81%
24-May-2024 00:00Overcast Clouds21°C4 mph, SW99%10000m1015hPa84%
24-May-2024 03:00Overcast Clouds20°C4 mph, SW100%10000m1016hPa86%
24-May-2024 06:00Overcast Clouds23°C4 mph, SW98%10000m1017hPa75%
24-May-2024 09:00Broken Clouds28°C7 mph, S73%10000m1014hPa54%
24-May-2024 12:00Broken Clouds29°C9 mph, SE60%10000m1011hPa53%
24-May-2024 15:00Broken Clouds25°C2 mph, SE66%10000m1012hPa70%
24-May-2024 18:00Broken Clouds23°C2 mph, SW65%10000m1015hPa71%
24-May-2024 21:00Broken Clouds22°C4 mph, S78%10000m1015hPa76%
25-May-2024 00:00Broken Clouds20°C2 mph, SW70%10000m1014hPa88%
25-May-2024 03:00Few Clouds19°C2 mph, SW18%10000m1016hPa92%
25-May-2024 06:00Clear Sky24°C4 mph, SW10%10000m1017hPa75%
25-May-2024 09:00Scattered Clouds28°C4 mph, SE25%10000m1015hPa58%
25-May-2024 12:00Broken Clouds28°C4 mph, SE56%10000m1012hPa61%
25-May-2024 15:00Light Rain25°C2 mph, SE82%10000m1013hPa77%
25-May-2024 18:00Light Rain23°C2 mph, SW83%10000m1015hPa81%
25-May-2024 21:00Light Rain21°C2 mph, SW82%10000m1016hPa85%
26-May-2024 00:00Scattered Clouds20°C4 mph, S50%10000m1015hPa92%
26-May-2024 03:00Scattered Clouds19°C2 mph, S48%10000m1016hPa94%
26-May-2024 06:00Broken Clouds23°C2 mph, S74%10000m1017hPa79%
26-May-2024 09:00Overcast Clouds27°C2 mph, S100%10000m1016hPa63%
26-May-2024 12:00Overcast Clouds28°C4 mph, SE89%10000m1013hPa59%
26-May-2024 15:00Light Rain25°C4 mph, SE81%10000m1014hPa79%
26-May-2024 18:00Broken Clouds22°C2 mph, S79%10000m1016hPa86%
26-May-2024 21:00Overcast Clouds23°C4 mph, S97%10000m1016hPa80%
27-May-2024 00:00Overcast Clouds20°C4 mph, S97%10000m1015hPa86%
27-May-2024 03:00Overcast Clouds19°C2 mph, S94%10000m1017hPa92%
27-May-2024 06:00Broken Clouds23°C4 mph, S59%10000m1018hPa75%
27-May-2024 09:00Broken Clouds28°C4 mph, SE82%10000m1016hPa60%
27-May-2024 12:00Overcast Clouds29°C4 mph, SE89%10000m1013hPa55%
27-May-2024 15:00Broken Clouds25°C4 mph, SE77%10000m1014hPa74%
27-May-2024 18:00Broken Clouds23°C2 mph, S74%10000m1016hPa76%
27-May-2024 21:00Broken Clouds22°C4 mph, S81%10000m1017hPa82%
28-May-2024 00:00Broken Clouds19°C4 mph, S76%10000m1016hPa91%
28-May-2024 03:00Broken Clouds20°C2 mph, SW57%10000m1018hPa88%
28-May-2024 06:00Broken Clouds23°C4 mph, S73%10000m1019hPa77%
28-May-2024 09:00Overcast Clouds25°C4 mph, S99%10000m1017hPa66%
28-May-2024 12:00Overcast Clouds27°C4 mph, SE98%10000m1014hPa62%
28-May-2024 15:00Broken Clouds24°C4 mph, SE81%10000m1015hPa75%
28-May-2024 18:00Broken Clouds22°C2 mph, S84%10000m1016hPa79%